Time;durP1;ratioP1;P1;durP2;ratioP2;P2;SDS_P1;SDS_P2;PMS_P1;PMS_P2;Temp;Humidity;BMP_temperature;BMP_pressure;BME280_temperature;BME280_humidity;BME280_pressure;Samples;Min_cycle;Max_cycle;Signal;HPM_P1;HPM_P2
2023/12/27 00:00:33;;;;;;;3.37;2.00;;;11.00;52.90;;;;;;20759;6843;118028;-76
2023/12/27 00:02:57;;;;;;;2.67;2.47;;;10.90;52.50;;;;;;20558;6838;285825;-77
2023/12/27 00:05:22;;;;;;;2.80;2.28;;;11.00;52.50;;;;;;20616;6827;307884;-76
2023/12/27 00:07:48;;;;;;;2.30;2.10;;;11.30;52.30;;;;;;20837;6827;117978;-77
2023/12/27 00:10:14;;;;;;;5.33;2.30;;;11.20;52.00;;;;;;20818;6827;118204;-77
2023/12/27 00:12:39;;;;;;;3.10;2.60;;;11.00;52.30;;;;;;20624;6827;286626;-76
2023/12/27 00:15:05;;;;;;;3.30;2.35;;;11.00;52.50;;;;;;20629;6827;277564;-77
2023/12/27 00:17:31;;;;;;;4.23;2.33;;;11.30;52.40;;;;;;20627;6827;278528;-77
2023/12/27 00:19:56;;;;;;;3.37;2.10;;;11.50;51.90;;;;;;20830;6827;117470;-77
2023/12/27 00:22:22;;;;;;;4.53;2.07;;;11.40;51.80;;;;;;20815;6827;118112;-76
2023/12/27 00:24:47;;;;;;;3.27;1.93;;;11.10;52.00;;;;;;20828;6827;117919;-77
2023/12/27 00:27:13;;;;;;;3.20;2.42;;;10.80;52.40;;;;;;20622;6825;305991;-76
2023/12/27 00:29:39;;;;;;;2.20;2.00;;;10.90;52.70;;;;;;20840;6825;117647;-77
2023/12/27 00:32:09;;;;;;;2.83;1.83;;;10.70;52.70;;;;;;20837;6823;116991;-77
2023/12/27 00:34:32;;;;;;;4.97;2.30;;;10.70;52.70;;;;;;20798;6825;123560;-76
2023/12/27 00:36:57;;;;;;;5.13;2.50;;;10.60;53.00;;;;;;20835;6825;117277;-76
2023/12/27 00:39:24;;;;;;;4.97;2.70;;;10.40;53.10;;;;;;20628;6822;306583;-77
2023/12/27 00:41:48;;;;;;;6.23;2.63;;;10.60;53.50;;;;;;20839;6822;117527;-77
2023/12/27 00:44:14;;;;;;;3.23;2.50;;;10.50;53.00;;;;;;20625;6822;323451;-77
2023/12/27 00:46:40;;;;;;;7.33;2.70;;;10.70;52.90;;;;;;20855;6822;117977;-77
2023/12/27 00:49:06;;;;;;;3.57;2.13;;;10.70;52.90;;;;;;20847;6822;117549;-78
2023/12/27 00:51:31;;;;;;;2.80;2.40;;;10.60;53.00;;;;;;20639;6822;277632;-78
2023/12/27 00:53:58;;;;;;;4.20;1.93;;;10.70;52.90;;;;;;20854;6822;117545;-75
2023/12/27 00:56:25;;;;;;;3.80;2.57;;;10.70;52.90;;;;;;20617;6822;307588;-78
2023/12/27 00:58:50;;;;;;;4.30;2.40;;;10.80;53.00;;;;;;20646;6822;278050;-76
2023/12/27 01:01:16;;;;;;;3.03;2.40;;;11.10;53.30;;;;;;20636;6822;279494;-75
2023/12/27 01:03:41;;;;;;;4.80;2.17;;;11.30;52.10;;;;;;20849;6822;117315;-76
2023/12/27 01:06:07;;;;;;;3.20;1.97;;;11.20;51.90;;;;;;20637;6822;331813;-77
2023/12/27 01:08:32;;;;;;;3.93;2.20;;;11.20;52.00;;;;;;20848;6822;117776;-76
2023/12/27 01:10:58;;;;;;;3.87;2.20;;;11.10;52.00;;;;;;20617;6822;328249;-77
2023/12/27 01:13:23;;;;;;;2.90;1.67;;;11.10;52.10;;;;;;20845;6822;117973;-77
2023/12/27 01:15:49;;;;;;;4.03;2.27;;;11.00;52.00;;;;;;20628;6822;308382;-77
2023/12/27 01:18:15;;;;;;;2.83;1.53;;;11.10;52.20;;;;;;20813;6822;119040;-77
2023/12/27 01:20:42;;;;;;;3.60;2.27;;;11.00;52.10;;;;;;20615;6822;307911;-77
2023/12/27 01:23:09;;;;;;;1.97;1.70;;;11.00;52.30;;;;;;20847;6822;117931;-77
2023/12/27 01:25:35;;;;;;;3.37;2.13;;;10.90;52.20;;;;;;20640;6822;308227;-77
2023/12/27 01:28:00;;;;;;;1.83;1.70;;;11.00;52.40;;;;;;20848;6822;117195;-77
2023/12/27 01:30:26;;;;;;;2.83;2.17;;;10.90;52.20;;;;;;20599;6822;334139;-77
2023/12/27 01:32:52;;;;;;;2.33;1.80;;;10.90;52.40;;;;;;20849;6822;117313;-77
2023/12/27 01:35:17;;;;;;;1.87;1.63;;;10.90;52.40;;;;;;20836;6822;117239;-77
2023/12/27 01:37:44;;;;;;;3.35;2.03;;;10.70;52.60;;;;;;20608;6822;310549;-77
2023/12/27 01:40:10;;;;;;;2.70;1.73;;;10.80;53.00;;;;;;20832;6822;117190;-78
2023/12/27 01:42:37;;;;;;;2.63;1.90;;;10.70;52.70;;;;;;20617;6820;306615;-77
2023/12/27 01:45:01;;;;;;;2.20;2.00;;;10.90;52.90;;;;;;20639;6821;297282;-76
2023/12/27 01:47:27;;;;;;;2.27;1.77;;;11.10;52.50;;;;;;20857;6821;117235;-76
2023/12/27 01:49:52;;;;;;;1.70;1.60;;;11.00;52.20;;;;;;20852;6822;117548;-76
2023/12/27 01:52:18;;;;;;;1.67;1.50;;;10.80;52.50;;;;;;20830;6822;118687;-77
2023/12/27 01:54:44;;;;;;;3.60;1.93;;;10.40;53.10;;;;;;20856;6822;117230;-77
2023/12/27 01:57:10;;;;;;;2.93;1.80;;;10.40;53.10;;;;;;20638;6822;307018;-77
2023/12/27 01:59:35;;;;;;;3.92;2.00;;;10.50;53.40;;;;;;20640;6822;278902;-76
2023/12/27 02:02:01;;;;;;;2.63;2.10;;;10.80;53.10;;;;;;20844;6822;117584;-77
2023/12/27 02:04:27;;;;;;;3.40;2.07;;;10.80;52.80;;;;;;20621;6822;289628;-76
2023/12/27 02:06:52;;;;;;;3.63;1.63;;;10.90;52.90;;;;;;20855;6822;117297;-76
2023/12/27 02:09:20;;;;;;;1.77;1.57;;;10.60;53.00;;;;;;20829;6822;118285;-76
2023/12/27 02:11:45;;;;;;;3.10;2.10;;;10.60;53.00;;;;;;20636;6822;289224;-76
2023/12/27 02:14:11;;;;;;;2.57;2.23;;;10.70;53.30;;;;;;20817;6822;118361;-77
2023/12/27 02:16:36;;;;;;;3.63;2.63;;;10.60;53.00;;;;;;20638;6822;338472;-76
2023/12/27 02:19:03;;;;;;;3.37;2.17;;;10.70;53.30;;;;;;20848;6822;117433;-76
2023/12/27 02:21:29;;;;;;;2.42;1.83;;;10.70;53.10;;;;;;20250;6822;345663;-77
2023/12/27 02:23:55;;;;;;;1.97;1.70;;;10.70;53.20;;;;;;20847;6822;117171;-76
2023/12/27 02:26:20;;;;;;;4.90;1.97;;;10.60;53.00;;;;;;20803;6822;117455;-76
2023/12/27 02:28:46;;;;;;;2.97;2.13;;;10.40;52.70;;;;;;20639;6822;298865;-76
2023/12/27 02:31:11;;;;;;;2.30;2.03;;;10.50;53.40;;;;;;20848;6822;117429;-76
2023/12/27 02:33:38;;;;;;;2.50;1.90;;;10.40;53.20;;;;;;20638;6822;319164;-76
2023/12/27 02:36:04;;;;;;;2.75;2.20;;;10.50;53.60;;;;;;20625;6822;306720;-76
2023/12/27 02:38:29;;;;;;;2.80;2.00;;;10.80;53.30;;;;;;20830;6822;117492;-76
2023/12/27 02:40:55;;;;;;;3.40;2.10;;;10.70;53.10;;;;;;20641;6822;285580;-77
2023/12/27 02:43:22;;;;;;;4.13;2.10;;;10.70;53.10;;;;;;20844;6822;117574;-76
2023/12/27 02:45:47;;;;;;;2.62;2.22;;;10.70;53.10;;;;;;20638;6822;278376;-76
2023/12/27 02:48:14;;;;;;;3.33;2.20;;;10.70;53.30;;;;;;20833;6822;117094;-77
2023/12/27 02:50:44;;;;;;;4.37;2.40;;;10.60;53.10;;;;;;20636;6822;283946;-76
2023/12/27 02:53:09;;;;;;;2.33;2.10;;;10.90;53.70;;;;;;20628;6822;277327;-77
2023/12/27 02:55:35;;;;;;;2.70;1.87;;;10.90;53.00;;;;;;20853;6820;117100;-76
2023/12/27 02:58:01;;;;;;;2.60;2.37;;;10.80;53.60;;;;;;20633;6821;306190;-76
2023/12/27 03:00:28;;;;;;;3.00;2.50;;;11.00;52.80;;;;;;20621;6821;308193;-76
2023/12/27 03:02:53;;;;;;;3.57;2.20;;;11.00;52.70;;;;;;20821;6822;119695;-76
2023/12/27 03:05:18;;;;;;;3.80;2.20;;;10.90;52.70;;;;;;20848;6822;117070;-75
2023/12/27 03:07:44;;;;;;;3.33;2.55;;;10.60;53.00;;;;;;20638;6822;309095;-76
2023/12/27 03:10:11;;;;;;;3.45;2.60;;;10.60;53.30;;;;;;20623;6822;278434;-76
2023/12/27 03:12:35;;;;;;;3.10;2.27;;;10.90;53.10;;;;;;20845;6822;117113;-76
2023/12/27 03:15:02;;;;;;;3.30;2.30;;;10.80;52.90;;;;;;20641;6822;309581;-76
2023/12/27 03:17:29;;;;;;;3.37;2.20;;;10.80;53.10;;;;;;20635;6822;307082;-76
2023/12/27 03:19:54;;;;;;;4.07;2.40;;;11.00;52.90;;;;;;20638;6822;279848;-76
2023/12/27 03:22:21;;;;;;;4.43;2.40;;;11.20;52.60;;;;;;20602;6822;307613;-76
2023/12/27 03:24:47;;;;;;;3.17;2.40;;;11.30;52.30;;;;;;20640;6822;307201;-76
2023/12/27 03:27:12;;;;;;;2.20;2.00;;;11.50;52.00;;;;;;20847;6822;118005;-76
2023/12/27 03:29:39;;;;;;;2.80;2.27;;;11.20;51.90;;;;;;20635;6822;334999;-76
2023/12/27 03:32:06;;;;;;;3.03;1.80;;;11.10;52.30;;;;;;20847;6822;117544;-76
2023/12/27 03:34:31;;;;;;;3.45;2.50;;;11.00;52.40;;;;;;20612;6822;308749;-76
2023/12/27 03:36:57;;;;;;;4.78;2.50;;;11.00;52.70;;;;;;20638;6822;336899;-76
2023/12/27 03:39:23;;;;;;;2.95;2.60;;;11.20;52.60;;;;;;20639;6822;307422;-76
2023/12/27 03:41:49;;;;;;;2.53;2.00;;;11.30;52.30;;;;;;20632;6822;306552;-76
2023/12/27 03:44:15;;;;;;;3.70;2.00;;;11.50;52.10;;;;;;20832;6822;118423;-77
2023/12/27 03:46:40;;;;;;;3.42;2.22;;;11.30;52.00;;;;;;20639;6822;277974;-76
2023/12/27 03:49:07;;;;;;;3.40;1.87;;;11.10;52.30;;;;;;20848;6822;116938;-76
2023/12/27 03:51:33;;;;;;;2.47;1.70;;;11.00;52.20;;;;;;20848;6822;118426;-76
2023/12/27 03:53:59;;;;;;;2.40;1.63;;;10.50;52.90;;;;;;20850;6822;116964;-77
2023/12/27 03:56:25;;;;;;;3.43;2.30;;;10.40;52.90;;;;;;20619;6822;308007;-77
2023/12/27 03:58:51;;;;;;;2.90;1.77;;;10.40;52.90;;;;;;20854;6822;118409;-77
2023/12/27 04:01:23;;;;;;;2.77;1.70;;;10.40;52.90;;;;;;20834;6822;117552;-78
2023/12/27 04:03:49;;;;;;;2.33;1.93;;;10.20;53.10;;;;;;20846;6822;118282;-77
2023/12/27 04:06:18;;;;;;;2.17;1.90;;;9.90;54.30;;;;;;20832;6820;117419;-77
2023/12/27 04:08:43;;;;;;;3.00;1.80;;;9.70;54.50;;;;;;20632;6821;336415;-77
2023/12/27 04:11:09;;;;;;;3.57;1.87;;;9.80;55.00;;;;;;20847;6821;117020;-77
2023/12/27 04:13:35;;;;;;;2.03;1.60;;;9.60;54.80;;;;;;20853;6822;117329;-77
2023/12/27 04:16:02;;;;;;;1.90;1.60;;;9.50;54.70;;;;;;20853;6822;117169;-77
2023/12/27 04:18:27;;;;;;;2.60;2.00;;;9.40;55.70;;;;;;20620;6822;278705;-77
2023/12/27 04:20:55;;;;;;;2.58;1.92;;;9.70;55.30;;;;;;20635;6822;293511;-77
2023/12/27 04:23:20;;;;;;;3.00;1.85;;;9.70;54.60;;;;;;20627;6822;336479;-77
2023/12/27 04:25:46;;;;;;;2.97;1.90;;;9.90;54.10;;;;;;20851;6822;117544;-76
2023/12/27 04:28:12;;;;;;;3.00;2.00;;;9.80;54.00;;;;;;20621;6822;320478;-76
2023/12/27 04:30:37;;;;;;;3.20;2.17;;;9.70;54.10;;;;;;20643;6822;278001;-77
2023/12/27 04:33:03;;;;;;;3.62;2.40;;;9.80;54.00;;;;;;20635;6822;295451;-76
2023/12/27 04:35:30;;;;;;;2.73;2.17;;;10.00;52.60;;;;;;20851;6822;117366;-77
2023/12/27 04:37:57;;;;;;;4.10;2.50;;;9.70;53.40;;;;;;20853;6822;117205;-76
2023/12/27 04:40:21;;;;;;;3.30;2.10;;;9.40;54.00;;;;;;20824;6822;117958;-76
2023/12/27 04:42:47;;;;;;;2.97;2.63;;;9.00;55.50;;;;;;20642;6822;283160;-77
2023/12/27 04:45:13;;;;;;;2.80;2.60;;;9.00;54.90;;;;;;20639;6822;307362;-77
2023/12/27 04:47:39;;;;;;;2.83;2.62;;;9.30;54.90;;;;;;20643;6822;308974;-77
2023/12/27 04:50:04;;;;;;;3.00;2.62;;;9.50;54.30;;;;;;20630;6822;280778;-77
2023/12/27 04:52:30;;;;;;;4.85;2.83;;;9.60;53.80;;;;;;20614;6822;336836;-77
2023/12/27 04:54:55;;;;;;;3.20;2.43;;;9.70;53.80;;;;;;20851;6822;117074;-77
2023/12/27 04:57:22;;;;;;;2.30;2.10;;;9.40;53.70;;;;;;20854;6822;119032;-77
2023/12/27 04:59:48;;;;;;;4.67;3.17;;;9.00;54.20;;;;;;20636;6822;332792;-77
2023/12/27 05:02:15;;;;;;;3.12;2.80;;;9.00;55.00;;;;;;20613;6822;303057;-78
2023/12/27 05:04:42;;;;;;;2.93;2.50;;;9.10;54.90;;;;;;20855;6822;117414;-77
2023/12/27 05:07:07;;;;;;;4.27;2.60;;;9.00;54.80;;;;;;20853;6822;120478;-77
2023/12/27 05:09:33;;;;;;;5.37;2.73;;;8.70;55.10;;;;;;20848;6822;118083;-77
2023/12/27 05:11:58;;;;;;;3.77;3.00;;;8.40;55.40;;;;;;20622;6822;279115;-77
2023/12/27 05:14:24;;;;;;;5.65;3.40;;;8.50;55.80;;;;;;20628;6822;307194;-77
2023/12/27 05:16:50;;;;;;;4.00;2.93;;;8.70;55.50;;;;;;20858;6822;117012;-77
2023/12/27 05:19:15;;;;;;;6.05;3.45;;;8.60;55.10;;;;;;20640;6820;280158;-77
2023/12/27 05:21:41;;;;;;;3.65;3.30;;;8.80;55.20;;;;;;20634;6821;337099;-77
2023/12/27 05:24:07;;;;;;;5.10;3.73;;;8.80;55.20;;;;;;20634;6822;337930;-77
2023/12/27 05:26:32;;;;;;;5.03;3.30;;;9.00;55.00;;;;;;20829;6822;119170;-77
2023/12/27 05:28:58;;;;;;;4.17;3.30;;;8.80;54.90;;;;;;20853;6822;120052;-76
2023/12/27 05:31:24;;;;;;;4.53;4.00;;;8.40;55.30;;;;;;20634;6822;326320;-76
2023/12/27 05:33:49;;;;;;;5.27;3.43;;;8.50;56.10;;;;;;20854;6822;118087;-77
2023/12/27 05:36:16;;;;;;;5.30;3.23;;;8.40;55.90;;;;;;20833;6822;117720;-76
2023/12/27 05:38:41;;;;;;;9.70;3.40;;;8.10;56.10;;;;;;20852;6822;118517;-78
2023/12/27 05:41:08;;;;;;;4.40;3.87;;;7.90;56.40;;;;;;20630;6822;306577;-77
2023/12/27 05:43:34;;;;;;;6.75;4.00;;;8.00;56.80;;;;;;20637;6822;306499;-77
2023/12/27 05:45:59;;;;;;;3.67;3.20;;;8.30;56.60;;;;;;20843;6822;117962;-76
2023/12/27 05:48:25;;;;;;;4.20;3.07;;;8.30;56.30;;;;;;20832;6822;117199;-76
2023/12/27 05:50:52;;;;;;;4.30;3.50;;;8.10;56.60;;;;;;20634;6822;307109;-76
2023/12/27 05:53:17;;;;;;;4.17;3.00;;;8.20;57.20;;;;;;20853;6822;116831;-76
2023/12/27 05:55:43;;;;;;;4.53;3.50;;;8.10;56.90;;;;;;20634;6822;306162;-77
2023/12/27 05:58:08;;;;;;;5.07;3.10;;;8.20;57.20;;;;;;20827;6822;117474;-77
2023/12/27 06:00:34;;;;;;;4.00;3.60;;;8.20;56.90;;;;;;20637;6822;281339;-76
2023/12/27 06:03:00;;;;;;;6.35;4.32;;;8.30;57.40;;;;;;20633;6822;307089;-77
2023/12/27 06:05:26;;;;;;;5.55;5.05;;;8.80;57.00;;;;;;20639;6822;301668;-77
2023/12/27 06:07:51;;;;;;;6.47;4.83;;;8.80;57.00;;;;;;20848;6822;116926;-77
2023/12/27 06:10:17;;;;;;;6.60;5.65;;;8.70;56.70;;;;;;20612;6822;310656;-76
2023/12/27 06:12:43;;;;;;;5.50;4.10;;;8.60;56.70;;;;;;20822;6822;117051;-75
2023/12/27 06:15:10;;;;;;;6.07;4.40;;;8.60;56.70;;;;;;20623;6822;309048;-77
2023/12/27 06:17:35;;;;;;;7.57;3.77;;;8.50;56.90;;;;;;20845;6822;116971;-77
2023/12/27 06:20:03;;;;;;;4.00;3.53;;;8.50;56.90;;;;;;20849;6822;117154;-77
2023/12/27 06:22:26;;;;;;;3.40;3.20;;;8.30;57.10;;;;;;20820;6822;117239;-77
2023/12/27 06:24:53;;;;;;;4.60;3.50;;;8.10;57.40;;;;;;20857;6822;118165;-77
2023/12/27 06:27:20;;;;;;;8.68;7.85;;;7.90;57.50;;;;;;20638;6822;307070;-77
2023/12/27 06:29:46;;;;;;;12.43;9.13;;;8.10;58.00;;;;;;20847;6820;117644;-77
2023/12/27 06:32:12;;;;;;;10.55;9.57;;;8.10;57.70;;;;;;20616;6821;307170;-78
2023/12/27 06:34:38;;;;;;;54.97;48.97;;;8.50;58.10;;;;;;20640;6821;277840;-78
2023/12/27 06:37:03;;;;;;;45.47;40.57;;;8.50;58.10;;;;;;20643;6822;280740;-75
2023/12/27 06:39:29;;;;;;;54.47;42.07;;;8.80;57.90;;;;;;20854;6822;118429;-76
2023/12/27 06:41:55;;;;;;;56.00;48.60;;;8.70;57.50;;;;;;20641;6822;295862;-78
2023/12/27 06:44:20;;;;;;;29.95;26.75;;;8.70;57.00;;;;;;20615;6822;335737;-76
2023/12/27 06:46:46;;;;;;;22.13;18.47;;;8.90;56.30;;;;;;20850;6822;117390;-78
2023/12/27 06:49:11;;;;;;;14.57;13.07;;;8.80;56.10;;;;;;20636;6822;285046;-77
2023/12/27 06:51:37;;;;;;;11.80;10.75;;;8.70;56.20;;;;;;20632;6822;336561;-77
2023/12/27 06:54:03;;;;;;;6.87;6.20;;;9.10;56.00;;;;;;20640;6822;306642;-76
2023/12/27 06:56:29;;;;;;;6.40;5.67;;;9.00;55.90;;;;;;20834;6822;118048;-78
2023/12/27 06:58:54;;;;;;;5.67;4.83;;;8.90;56.00;;;;;;20842;6822;117283;-76
2023/12/27 07:01:20;;;;;;;4.93;4.47;;;8.60;56.40;;;;;;20849;6822;117405;-76
2023/12/27 07:03:45;;;;;;;5.57;4.43;;;8.30;56.90;;;;;;20662;6822;281250;-77
2023/12/27 07:06:11;;;;;;;4.83;4.00;;;8.40;57.40;;;;;;20830;6822;117469;-77
2023/12/27 07:08:36;;;;;;;5.53;3.57;;;8.40;57.20;;;;;;20843;6822;117041;-77
2023/12/27 07:11:03;;;;;;;5.30;3.83;;;8.00;57.60;;;;;;20846;6822;117469;-77
2023/12/27 07:13:29;;;;;;;4.23;3.53;;;8.00;57.60;;;;;;20840;6822;113453;-77
2023/12/27 07:15:54;;;;;;;3.93;3.27;;;7.90;57.90;;;;;;20853;6822;121017;-77
2023/12/27 07:18:20;;;;;;;4.62;3.80;;;7.80;58.10;;;;;;20619;6822;278725;-77
2023/12/27 07:20:45;;;;;;;4.62;3.80;;;8.00;58.60;;;;;;20619;6822;307583;-77
2023/12/27 07:23:12;;;;;;;5.20;3.15;;;8.40;57.70;;;;;;20807;6837;118135;-77
2023/12/27 07:25:37;;;;;;;4.63;3.43;;;8.40;57.60;;;;;;20797;6837;117391;-76
2023/12/27 07:28:03;;;;;;;5.33;3.13;;;8.30;57.80;;;;;;20563;6842;278182;-76
2023/12/27 07:30:29;;;;;;;3.70;3.13;;;8.40;57.40;;;;;;20595;6827;277947;-76
2023/12/27 07:32:54;;;;;;;4.60;2.92;;;8.70;56.60;;;;;;20762;6849;118236;-76
2023/12/27 07:35:21;;;;;;;5.55;3.05;;;8.50;56.50;;;;;;20786;6835;116998;-76
2023/12/27 07:37:46;;;;;;;4.97;3.20;;;8.50;56.50;;;;;;20803;6835;116828;-76
2023/12/27 07:40:12;;;;;;;3.83;3.53;;;8.30;56.70;;;;;;20576;6833;277927;-77
2023/12/27 07:42:37;;;;;;;4.50;3.97;;;8.40;56.60;;;;;;20588;6834;305467;-77
2023/12/27 07:45:03;;;;;;;3.87;3.57;;;8.70;55.80;;;;;;20587;6831;336135;-77
2023/12/27 07:47:29;;;;;;;6.20;4.10;;;9.00;55.10;;;;;;20651;6816;306128;-77
2023/12/27 07:49:55;;;;;;;4.27;3.70;;;9.20;54.70;;;;;;20659;6816;292013;-77
2023/12/27 07:52:21;;;;;;;4.77;3.60;;;9.40;54.60;;;;;;20844;6816;117868;-77
2023/12/27 07:54:47;;;;;;;7.57;6.40;;;9.20;54.50;;;;;;20636;6822;310457;-77
2023/12/27 07:57:12;;;;;;;5.03;4.57;;;9.20;54.90;;;;;;20786;6842;118218;-77
2023/12/27 07:59:38;;;;;;;5.32;3.80;;;9.00;54.80;;;;;;20803;6837;117030;-77
2023/12/27 08:02:04;;;;;;;5.17;3.33;;;8.80;55.30;;;;;;20837;6827;118582;-77
2023/12/27 08:04:29;;;;;;;5.40;3.47;;;8.60;56.50;;;;;;20599;6823;336520;-77
2023/12/27 08:06:55;;;;;;;4.40;4.00;;;8.80;56.10;;;;;;20858;6820;116769;-77
2023/12/27 08:09:22;;;;;;;7.00;6.50;;;8.80;55.90;;;;;;20603;6823;339362;-77
2023/12/27 08:11:46;;;;;;;6.62;5.57;;;8.90;55.60;;;;;;20807;6829;118919;-76
2023/12/27 08:14:11;;;;;;;6.83;6.33;;;8.90;55.30;;;;;;20607;6812;308304;-76
2023/12/27 08:16:37;;;;;;;5.05;3.95;;;9.00;55.20;;;;;;20667;6812;278275;-77
2023/12/27 08:19:03;;;;;;;6.05;4.03;;;9.20;54.70;;;;;;20618;6825;306409;-77
2023/12/27 08:21:28;;;;;;;14.43;13.00;;;9.50;54.50;;;;;;20833;6825;118588;-77
2023/12/27 08:23:54;;;;;;;6.53;5.93;;;9.40;54.70;;;;;;20620;6827;335716;-77
2023/12/27 08:26:20;;;;;;;3.57;3.20;;;9.40;54.70;;;;;;20816;6827;118589;-77
2023/12/27 08:28:46;;;;;;;7.40;5.65;;;9.30;54.60;;;;;;20626;6825;277344;-78
2023/12/27 08:31:11;;;;;;;10.60;9.48;;;9.40;55.00;;;;;;20622;6825;277913;-78
2023/12/27 08:33:37;;;;;;;11.40;9.53;;;9.60;54.90;;;;;;20835;6825;118620;-78
2023/12/27 08:36:04;;;;;;;5.23;4.60;;;9.60;54.80;;;;;;20624;6825;306125;-78
2023/12/27 08:38:30;;;;;;;8.07;3.30;;;9.60;55.20;;;;;;20800;6825;118145;-76
2023/12/27 08:40:57;;;;;;;7.47;4.10;;;9.50;55.10;;;;;;20624;6825;305525;-76
2023/12/27 08:43:29;;;;;;;4.73;4.30;;;9.90;54.80;;;;;;20625;6825;307346;-77
2023/12/27 08:45:50;;;;;;;7.47;6.87;;;9.90;54.80;;;;;;20824;6825;117909;-77
2023/12/27 08:48:15;;;;;;;8.37;7.03;;;9.90;54.80;;;;;;20802;6825;116861;-77
2023/12/27 08:50:41;;;;;;;5.20;4.80;;;9.80;55.30;;;;;;20621;6825;306538;-77
2023/12/27 08:53:06;;;;;;;5.43;4.35;;;9.90;55.30;;;;;;20626;6823;306428;-77
2023/12/27 08:55:33;;;;;;;4.40;3.92;;;10.20;53.50;;;;;;20625;6825;307529;-78
2023/12/27 08:57:59;;;;;;;3.97;2.90;;;10.40;52.90;;;;;;20843;6825;118665;-78
2023/12/27 09:00:24;;;;;;;4.10;2.70;;;10.20;52.70;;;;;;20825;6825;117094;-77
2023/12/27 09:02:50;;;;;;;2.93;2.50;;;9.90;54.10;;;;;;20847;6825;119362;-77
2023/12/27 09:05:16;;;;;;;4.03;2.57;;;9.40;55.00;;;;;;20838;6827;117748;-76
2023/12/27 09:07:42;;;;;;;5.47;2.80;;;9.40;55.00;;;;;;20831;6827;116763;-76
2023/12/27 09:10:10;;;;;;;3.72;3.22;;;9.20;55.30;;;;;;20622;6827;280087;-76
2023/12/27 09:12:38;;;;;;;3.43;3.03;;;9.40;55.50;;;;;;20830;6827;117387;-78
2023/12/27 09:15:01;;;;;;;3.03;2.83;;;9.40;55.50;;;;;;20814;6827;116936;-78
2023/12/27 09:17:26;;;;;;;3.50;3.17;;;9.40;55.90;;;;;;20611;6827;306841;-77
2023/12/27 09:19:52;;;;;;;3.17;2.83;;;9.60;56.00;;;;;;20819;6827;117840;-78
2023/12/27 09:22:17;;;;;;;3.10;2.90;;;9.70;55.80;;;;;;20802;6825;118553;-77
2023/12/27 09:24:43;;;;;;;3.65;3.35;;;9.70;55.90;;;;;;20620;6825;305812;-77
2023/12/27 09:27:12;;;;;;;3.30;3.00;;;9.90;56.00;;;;;;20826;6825;116893;-77
2023/12/27 09:29:35;;;;;;;4.65;3.62;;;10.10;54.60;;;;;;20612;6822;335200;-76
2023/12/27 09:32:00;;;;;;;5.17;2.97;;;10.10;54.60;;;;;;20848;6822;118914;-77
2023/12/27 09:34:27;;;;;;;2.63;2.53;;;10.10;54.50;;;;;;20828;6822;117414;-77
2023/12/27 09:36:53;;;;;;;5.10;3.30;;;10.10;54.60;;;;;;20642;6822;276978;-78
2023/12/27 09:39:19;;;;;;;3.83;3.37;;;10.30;54.30;;;;;;20636;6822;276871;-78
2023/12/27 09:41:44;;;;;;;4.67;3.40;;;10.70;53.60;;;;;;20847;6822;118225;-78
2023/12/27 09:44:13;;;;;;;4.00;3.20;;;10.80;53.40;;;;;;20624;6822;284312;-78
2023/12/27 09:46:39;;;;;;;3.60;3.30;;;10.90;52.90;;;;;;20643;6822;277731;-79
2023/12/27 09:49:07;;;;;;;4.37;3.45;;;11.40;51.30;;;;;;20630;6822;306082;-78
2023/12/27 09:51:32;;;;;;;3.33;3.03;;;11.40;51.30;;;;;;20843;6822;118496;-78
2023/12/27 09:53:58;;;;;;;3.55;3.30;;;11.30;51.20;;;;;;20615;6822;306840;-78
2023/12/27 09:56:23;;;;;;;3.17;2.87;;;11.30;51.30;;;;;;20815;6820;117185;-78
2023/12/27 09:58:50;;;;;;;3.37;3.00;;;11.20;51.40;;;;;;20631;6820;336149;-78
2023/12/27 10:01:14;;;;;;;3.23;3.00;;;11.30;51.20;;;;;;20847;6820;117153;-77
2023/12/27 10:03:40;;;;;;;3.30;3.00;;;11.30;51.30;;;;;;20855;6819;117050;-77
2023/12/27 10:06:12;;;;;;;2.93;2.73;;;11.10;51.40;;;;;;20837;6822;117648;-77
2023/12/27 10:08:38;;;;;;;4.22;3.75;;;11.00;52.00;;;;;;20601;6823;334653;-81
2023/12/27 10:11:06;;;;;;;4.17;3.17;;;11.10;51.70;;;;;;20638;6823;276059;-77
2023/12/27 10:13:31;;;;;;;4.00;3.53;;;11.40;51.30;;;;;;20604;6823;309253;-77
2023/12/27 10:15:56;;;;;;;4.20;3.33;;;12.00;50.50;;;;;;20583;6838;279509;-76
2023/12/27 10:18:21;;;;;;;3.83;3.30;;;11.90;50.40;;;;;;20596;6827;306710;-77
2023/12/27 10:20:48;;;;;;;4.25;3.58;;;12.10;49.70;;;;;;20610;6828;299667;-77
2023/12/27 10:23:14;;;;;;;4.20;3.80;;;12.40;49.70;;;;;;20622;6827;290995;-77
2023/12/27 10:25:40;;;;;;;4.47;3.13;;;12.60;49.30;;;;;;20833;6827;118013;-77
2023/12/27 10:28:05;;;;;;;3.40;3.10;;;12.50;49.30;;;;;;20606;6827;276906;-77
2023/12/27 10:30:30;;;;;;;3.90;3.03;;;12.60;48.60;;;;;;20801;6827;117707;-77
2023/12/27 10:32:59;;;;;;;4.10;2.90;;;12.40;48.90;;;;;;20621;6827;320254;-77
2023/12/27 10:35:25;;;;;;;3.10;2.70;;;12.50;49.10;;;;;;20616;6825;306696;-77
2023/12/27 10:38:06;;;;;;;3.30;2.67;;;12.70;48.40;;;;;;20830;6825;118282;-77
2023/12/27 10:40:30;;;;;;;2.80;2.33;;;12.80;48.60;;;;;;20790;6825;117207;-77
2023/12/27 10:42:57;;;;;;;3.33;2.17;;;12.70;48.80;;;;;;20840;6825;117854;-77
2023/12/27 10:45:23;;;;;;;2.93;2.63;;;12.50;49.10;;;;;;20636;6825;277482;-77
2023/12/27 10:47:51;;;;;;;3.23;2.77;;;12.60;47.50;;;;;;20840;6825;116840;-77
2023/12/27 10:50:16;;;;;;;3.50;3.20;;;12.60;47.70;;;;;;20608;6825;308857;-76
2023/12/27 10:52:43;;;;;;;3.67;3.10;;;12.80;48.90;;;;;;20831;6825;117735;-77
2023/12/27 10:55:09;;;;;;;3.67;3.30;;;12.70;48.20;;;;;;20620;6825;307018;-77
2023/12/27 10:57:34;;;;;;;2.90;2.70;;;12.90;47.80;;;;;;20823;6825;116960;-77
2023/12/27 11:00:00;;;;;;;3.07;2.50;;;12.90;47.80;;;;;;20834;6825;117511;-78
2023/12/27 11:02:26;;;;;;;2.90;2.60;;;12.70;48.10;;;;;;20604;6825;306266;-78
2023/12/27 11:04:52;;;;;;;3.10;2.80;;;12.80;47.00;;;;;;20618;6825;303142;-76
2023/12/27 11:07:18;;;;;;;3.30;2.70;;;13.10;46.20;;;;;;20616;6825;306420;-77
2023/12/27 11:09:43;;;;;;;3.30;3.00;;;13.30;45.60;;;;;;20626;6825;277027;-77
2023/12/27 11:12:09;;;;;;;3.10;2.60;;;13.40;44.70;;;;;;20814;6825;118243;-78
2023/12/27 11:14:36;;;;;;;3.07;2.77;;;13.40;45.20;;;;;;20628;6825;307000;-77
2023/12/27 11:17:05;;;;;;;4.10;2.93;;;13.30;45.80;;;;;;20846;6823;117878;-77
2023/12/27 11:19:31;;;;;;;3.47;2.87;;;13.30;45.80;;;;;;20620;6824;296255;-77
2023/12/27 11:21:57;;;;;;;3.37;3.07;;;13.30;45.80;;;;;;20627;6824;280318;-77
2023/12/27 11:24:24;;;;;;;3.30;3.00;;;13.70;45.10;;;;;;20621;6824;278607;-78
2023/12/27 11:27:00;;;;;;;3.60;3.30;;;13.70;45.10;;;;;;20635;6824;306633;-76
2023/12/27 11:29:27;;;;;;;3.00;2.77;;;13.90;44.80;;;;;;20840;6824;117534;-76
2023/12/27 11:31:52;;;;;;;4.03;2.80;;;13.80;45.10;;;;;;20837;6824;120215;-77
2023/12/27 11:34:19;;;;;;;2.97;2.50;;;13.30;46.80;;;;;;20823;6824;117475;-77
2023/12/27 11:36:45;;;;;;;3.60;3.13;;;13.30;46.40;;;;;;20610;6825;306883;-79
2023/12/27 11:39:15;;;;;;;3.60;3.30;;;13.40;46.10;;;;;;20629;6825;305995;-76
2023/12/27 11:41:40;;;;;;;5.20;2.60;;;13.60;45.30;;;;;;20830;6825;117164;-77
2023/12/27 11:44:06;;;;;;;3.70;3.40;;;13.50;45.30;;;;;;20632;6825;293004;-77
2023/12/27 11:46:32;;;;;;;3.17;2.97;;;13.50;44.80;;;;;;20820;6825;118949;-77
2023/12/27 11:49:00;;;;;;;3.30;3.00;;;13.50;44.70;;;;;;20628;6825;306452;-77
2023/12/27 11:51:34;;;;;;;3.27;2.90;;;13.50;44.00;;;;;;20628;6825;276723;-77
2023/12/27 11:53:59;;;;;;;3.40;2.60;;;13.70;43.80;;;;;;20627;6825;306645;-77
2023/12/27 11:56:28;;;;;;;2.60;2.40;;;13.90;43.20;;;;;;20817;6825;117803;-78
2023/12/27 11:58:53;;;;;;;3.23;2.93;;;13.70;43.40;;;;;;20610;6825;277452;-78
2023/12/27 12:01:19;;;;;;;2.80;2.60;;;13.70;42.10;;;;;;20621;6825;303966;-78
2023/12/27 12:03:45;;;;;;;2.83;2.23;;;13.80;41.50;;;;;;20838;6825;117162;-78
2023/12/27 12:06:27;;;;;;;3.25;2.95;;;13.70;42.20;;;;;;20599;6825;330986;-77
2023/12/27 12:08:52;;;;;;;2.70;2.50;;;13.70;42.10;;;;;;20840;6825;117036;-78
2023/12/27 12:11:19;;;;;;;3.10;2.80;;;13.60;42.70;;;;;;20627;6825;307884;-78
2023/12/27 12:13:45;;;;;;;3.03;2.47;;;13.50;42.50;;;;;;20835;6825;118475;-77
2023/12/27 12:16:11;;;;;;;3.40;2.70;;;13.50;42.50;;;;;;20615;6825;277238;-78
2023/12/27 12:18:39;;;;;;;3.15;2.80;;;13.50;42.10;;;;;;20631;6825;296032;-78
2023/12/27 12:21:05;;;;;;;4.23;2.80;;;13.70;41.70;;;;;;20834;6825;117345;-78
2023/12/27 12:23:30;;;;;;;2.87;2.67;;;13.60;42.00;;;;;;20844;6825;118664;-78
2023/12/27 12:26:02;;;;;;;3.85;2.92;;;13.30;42.50;;;;;;20625;6825;335495;-78
2023/12/27 12:28:25;;;;;;;3.40;2.70;;;13.40;42.40;;;;;;20584;6823;307149;-78
2023/12/27 12:30:50;;;;;;;2.63;2.40;;;13.50;41.80;;;;;;20842;6824;118414;-78
2023/12/27 12:33:16;;;;;;;2.62;2.42;;;13.50;42.20;;;;;;20630;6824;306452;-78